Time;durP1;ratioP1;P1;durP2;ratioP2;P2;SDS_P1;SDS_P2;PMS_P1;PMS_P2;Temp;Humidity;BMP_temperature;BMP_pressure;BME280_temperature;BME280_humidity;BME280_pressure;Samples;Min_cycle;Max_cycle;Signal;HPM_P1;HPM_P2
2023/01/16 00:00:17;;;;;;;;;;;3.70;99.90;;;;;;4749111;30;20403;-86
2023/01/16 00:02:43;;;;;;;;;;;4.10;99.90;;;;;;4756151;30;20059;-86
2023/01/16 00:05:08;;;;;;;;;;;4.40;99.90;;;;;;4771107;30;20061;-86
2023/01/16 00:07:34;;;;;;;;;;;4.10;99.90;;;;;;4754208;30;19974;-86
2023/01/16 00:10:00;;;;;;;;;;;3.50;99.90;;;;;;4741269;30;19978;-86
2023/01/16 00:12:25;;;;;;;;;;;4.20;99.90;;;;;;4756168;30;19984;-86
2023/01/16 00:14:51;;;;;;;;;;;4.80;99.90;;;;;;4755822;30;19979;-86
2023/01/16 00:17:16;;;;;;;;;;;4.00;99.90;;;;;;4751128;30;19985;-86
2023/01/16 00:19:42;;;;;;;;;;;3.60;99.90;;;;;;4751517;30;19978;-86
2023/01/16 00:22:07;;;;;;;;;;;4.00;99.90;;;;;;4771932;30;20035;-85
2023/01/16 00:24:33;;;;;;;;;;;4.10;99.90;;;;;;4760828;30;20073;-86
2023/01/16 00:26:59;;;;;;;;;;;4.70;99.90;;;;;;4754187;30;19978;-85
2023/01/16 00:29:24;;;;;;;;;;;4.20;99.90;;;;;;4738008;30;19978;-85
2023/01/16 00:31:50;;;;;;;;;;;3.30;99.90;;;;;;4723532;30;19982;-86
2023/01/16 00:34:15;;;;;;;;;;;4.80;99.90;;;;;;4765799;30;19984;-86
2023/01/16 00:36:41;;;;;;;;;;;4.40;99.90;;;;;;4755231;30;20090;-86
2023/01/16 00:39:06;;;;;;;;;;;4.10;99.90;;;;;;4769964;30;19982;-86
2023/01/16 00:41:32;;;;;;;;;;;4.10;99.90;;;;;;4771699;30;19980;-87
2023/01/16 00:43:58;;;;;;;;;;;4.10;99.90;;;;;;4771475;30;20332;-86
2023/01/16 00:46:25;;;;;;;;;;;3.60;99.90;;;;;;4755356;30;20060;-87
2023/01/16 00:48:50;;;;;;;;;;;5.30;99.90;;;;;;4730286;30;20028;-86
2023/01/16 00:51:16;;;;;;;;;;;5.00;99.90;;;;;;4753505;30;19978;-87
2023/01/16 00:53:41;;;;;;;;;;;5.20;99.90;;;;;;4737624;30;19994;-85
2023/01/16 00:56:07;;;;;;;;;;;5.00;99.90;;;;;;4737486;30;20003;-86
2023/01/16 00:58:34;;;;;;;;;;;4.10;99.90;;;;;;4756701;30;19974;-86
2023/01/16 01:01:00;;;;;;;;;;;4.90;99.90;;;;;;4771237;30;20486;-85
2023/01/16 01:03:27;;;;;;;;;;;3.80;99.90;;;;;;4755150;30;19974;-86
2023/01/16 01:05:52;;;;;;;;;;;4.10;99.90;;;;;;4754941;30;19974;-86
2023/01/16 01:08:18;;;;;;;;;;;4.90;99.90;;;;;;4771202;30;20305;-86
2023/01/16 01:10:44;;;;;;;;;;;5.10;99.90;;;;;;4770747;30;19970;-86
2023/01/16 01:13:09;;;;;;;;;;;4.90;99.90;;;;;;4755104;30;20021;-86
2023/01/16 01:15:35;;;;;;;;;;;5.00;99.90;;;;;;4770969;30;20136;-86
2023/01/16 01:18:01;;;;;;;;;;;3.30;99.90;;;;;;4754362;30;19985;-86
2023/01/16 01:20:26;;;;;;;;;;;3.60;99.90;;;;;;4754777;30;19979;-86
2023/01/16 01:22:52;;;;;;;;;;;4.70;99.90;;;;;;4754329;30;20473;-86
2023/01/16 01:25:17;;;;;;;;;;;4.00;99.90;;;;;;4770924;30;20382;-86
2023/01/16 01:27:43;;;;;;;;;;;2.90;99.90;;;;;;4770514;30;19978;-86
2023/01/16 01:30:09;;;;;;;;;;;4.10;99.90;;;;;;4770868;30;19978;-86
2023/01/16 01:32:36;;;;;;;;;;;4.00;99.90;;;;;;4754393;30;19979;-86
2023/01/16 01:35:03;;;;;;;;;;;4.00;99.90;;;;;;4754060;30;20029;-86
2023/01/16 01:37:29;;;;;;;;;;;3.90;99.90;;;;;;4754662;30;20508;-86
2023/01/16 01:39:54;;;;;;;;;;;4.00;99.90;;;;;;4754833;30;20068;-86
2023/01/16 01:45:15;;;;;;;;;;;3.80;99.90;;;;;;4770244;30;19951;-85
2023/01/16 01:47:44;;;;;;;;;;;3.90;99.90;;;;;;4769926;30;19974;-86
2023/01/16 01:50:27;;;;;;;;;;;3.80;99.90;;;;;;4769965;30;19982;-86
2023/01/16 01:52:52;;;;;;;;;;;3.90;99.90;;;;;;4754334;30;19996;-86
2023/01/16 01:55:19;;;;;;;;;;;3.80;99.90;;;;;;4770531;30;20447;-86
2023/01/16 01:57:52;;;;;;;;;;;3.80;99.90;;;;;;4770044;30;20061;-86
2023/01/16 02:00:20;;;;;;;;;;;3.70;99.90;;;;;;4770078;30;20375;-87
2023/01/16 02:02:53;;;;;;;;;;;3.10;99.90;;;;;;4770288;30;19977;-87
2023/01/16 02:05:25;;;;;;;;;;;3.80;99.90;;;;;;4769887;30;20048;-87
2023/01/16 02:14:39;;;;;;;;;;;3.80;99.90;;;;;;4757746;30;19969;-86
2023/01/16 02:20:13;;;;;;;;;;;3.70;99.90;;;;;;4769611;30;20018;-86
2023/01/16 02:22:52;;;;;;;;;;;3.70;99.90;;;;;;4754049;30;19981;-86
2023/01/16 02:25:27;;;;;;;;;;;3.70;99.90;;;;;;4769659;30;20464;-86
2023/01/16 02:28:01;;;;;;;;;;;3.60;99.90;;;;;;4769909;30;19978;-85
2023/01/16 02:30:40;;;;;;;;;;;3.90;99.90;;;;;;4753304;30;20061;-86
2023/01/16 02:33:24;;;;;;;;;;;2.90;99.90;;;;;;4753519;30;20388;-85
2023/01/16 02:35:57;;;;;;;;;;;3.70;99.90;;;;;;4769532;29;20001;-86
2023/01/16 02:38:35;;;;;;;;;;;3.70;99.90;;;;;;4783747;30;20399;-85
2023/01/16 02:41:21;;;;;;;;;;;3.70;99.90;;;;;;4754188;30;20050;-86
2023/01/16 02:43:52;;;;;;;;;;;3.70;99.90;;;;;;4769351;30;20064;-86
2023/01/16 02:46:36;;;;;;;;;;;4.70;99.90;;;;;;4769509;30;20039;-86
2023/01/16 02:49:10;;;;;;;;;;;3.70;99.90;;;;;;4769818;30;19978;-86
2023/01/16 02:51:44;;;;;;;;;;;3.70;99.90;;;;;;4753439;30;20068;-85
2023/01/16 02:54:16;;;;;;;;;;;3.70;99.90;;;;;;4773318;30;19977;-86
2023/01/16 02:56:51;;;;;;;;;;;3.60;99.90;;;;;;4772863;30;19998;-85
2023/01/16 02:59:18;;;;;;;;;;;3.60;99.90;;;;;;4787001;30;19985;-86
2023/01/16 03:01:44;;;;;;;;;;;3.60;99.90;;;;;;4785981;30;20024;-86
2023/01/16 03:04:28;;;;;;;;;;;3.60;99.90;;;;;;4757167;30;20489;-86
2023/01/16 03:07:06;;;;;;;;;;;3.60;99.90;;;;;;4756903;30;20012;-86
2023/01/16 03:09:48;;;;;;;;;;;3.60;99.90;;;;;;4772962;30;20064;-86
2023/01/16 03:12:29;;;;;;;;;;;3.60;99.90;;;;;;4786597;30;19978;-87
2023/01/16 03:14:54;;;;;;;;;;;3.60;99.90;;;;;;4772759;30;20029;-86
2023/01/16 03:17:29;;;;;;;;;;;4.50;99.90;;;;;;4772849;30;20025;-86
2023/01/16 03:20:09;;;;;;;;;;;3.60;99.90;;;;;;4756511;30;19987;-86
2023/01/16 03:22:45;;;;;;;;;;;3.60;99.90;;;;;;4772637;30;19974;-86
2023/01/16 03:25:29;;;;;;;;;;;4.20;99.90;;;;;;4756620;30;19985;-87
2023/01/16 03:27:58;;;;;;;;;;;3.60;99.90;;;;;;4772836;30;19983;-86
2023/01/16 03:30:26;;;;;;;;;;;4.10;99.90;;;;;;4756314;30;19982;-86
2023/01/16 03:32:57;;;;;;;;;;;3.60;99.90;;;;;;4772247;30;19960;-86
2023/01/16 03:35:26;;;;;;;;;;;4.50;99.90;;;;;;4756848;30;19998;-86
2023/01/16 03:37:54;;;;;;;;;;;4.90;99.90;;;;;;4772308;30;19978;-86
2023/01/16 03:40:25;;;;;;;;;;;2.90;99.90;;;;;;4756445;30;20020;-86
2023/01/16 03:42:55;;;;;;;;;;;3.60;99.90;;;;;;4772150;30;20028;-86
2023/01/16 03:45:36;;;;;;;;;;;3.60;99.90;;;;;;4772415;30;19978;-85
2023/01/16 03:48:07;;;;;;;;;;;3.60;99.90;;;;;;4756865;30;20071;-86
2023/01/16 03:50:34;;;;;;;;;;;3.60;99.90;;;;;;4756022;30;19974;-86
2023/01/16 03:53:02;;;;;;;;;;;4.20;99.90;;;;;;4772533;30;20040;-86
2023/01/16 03:55:37;;;;;;;;;;;3.40;99.90;;;;;;4771968;30;19990;-86
2023/01/16 03:58:05;;;;;;;;;;;3.60;99.90;;;;;;4772203;30;20037;-86
2023/01/16 04:01:03;;;;;;;;;;;4.10;99.90;;;;;;4771752;30;20088;-86
2023/01/16 04:03:33;;;;;;;;;;;3.60;99.90;;;;;;4734754;30;20403;-86
2023/01/16 04:06:34;;;;;;;;;;;3.50;99.90;;;;;;4734239;30;19979;-86
2023/01/16 04:09:02;;;;;;;;;;;3.50;99.90;;;;;;4699892;30;20066;-86
2023/01/16 04:11:28;;;;;;;;;;;4.60;99.90;;;;;;4685134;30;19986;-86
2023/01/16 04:13:55;;;;;;;;;;;2.80;99.90;;;;;;4682381;30;20027;-86
2023/01/16 04:16:21;;;;;;;;;;;4.50;99.90;;;;;;4695405;30;20471;-86
2023/01/16 04:18:48;;;;;;;;;;;3.90;99.90;;;;;;4685369;30;19984;-86
2023/01/16 04:21:14;;;;;;;;;;;3.90;99.90;;;;;;4684871;30;20476;-86
2023/01/16 04:23:40;;;;;;;;;;;3.50;99.90;;;;;;4699569;30;19980;-86
2023/01/16 04:26:06;;;;;;;;;;;3.50;99.90;;;;;;4684866;30;19971;-86
2023/01/16 04:28:31;;;;;;;;;;;4.20;99.90;;;;;;4699397;30;20066;-86
2023/01/16 04:30:57;;;;;;;;;;;4.40;99.90;;;;;;4685071;30;20523;-86
2023/01/16 04:33:22;;;;;;;;;;;4.60;99.90;;;;;;4698961;30;19982;-86
2023/01/16 04:35:48;;;;;;;;;;;4.40;99.90;;;;;;4699236;30;20002;-86
2023/01/16 04:38:13;;;;;;;;;;;4.60;99.90;;;;;;4687482;30;20018;-86
2023/01/16 04:40:39;;;;;;;;;;;4.00;99.90;;;;;;4719367;30;20377;-86
2023/01/16 04:43:04;;;;;;;;;;;3.50;99.90;;;;;;4739426;30;20080;-85
2023/01/16 04:45:30;;;;;;;;;;;4.30;99.90;;;;;;4771516;30;19978;-85
2023/01/16 04:47:56;;;;;;;;;;;3.60;99.90;;;;;;4771116;30;19985;-87
2023/01/16 04:50:21;;;;;;;;;;;3.50;99.90;;;;;;4771396;30;19978;-87
2023/01/16 04:52:47;;;;;;;;;;;4.60;99.90;;;;;;4771365;30;20005;-87
2023/01/16 04:58:35;;;;;;;;;;;3.70;99.90;;;;;;4770976;30;19973;-87
2023/01/16 05:01:00;;;;;;;;;;;4.00;99.90;;;;;;4771066;30;19998;-86
2023/01/16 05:03:26;;;;;;;;;;;4.70;99.90;;;;;;4755157;30;20348;-86
2023/01/16 05:05:51;;;;;;;;;;;3.70;99.90;;;;;;4754448;30;19972;-86
2023/01/16 05:08:17;;;;;;;;;;;3.80;99.90;;;;;;4770753;30;19994;-86
2023/01/16 05:10:43;;;;;;;;;;;3.80;99.90;;;;;;4754859;30;19974;-86
2023/01/16 05:13:08;;;;;;;;;;;3.80;99.90;;;;;;4770959;30;20032;-85
2023/01/16 05:15:34;;;;;;;;;;;3.40;99.90;;;;;;4770068;30;19998;-85
2023/01/16 05:17:59;;;;;;;;;;;3.80;99.90;;;;;;4754529;30;19985;-86
2023/01/16 05:20:25;;;;;;;;;;;4.90;99.90;;;;;;4770589;30;19979;-86
2023/01/16 05:22:51;;;;;;;;;;;4.90;99.90;;;;;;4770952;30;19974;-85
2023/01/16 05:25:16;;;;;;;;;;;3.80;99.90;;;;;;4739678;30;20108;-87
2023/01/16 05:27:42;;;;;;;;;;;4.40;99.90;;;;;;4755038;30;20018;-87
2023/01/16 05:30:08;;;;;;;;;;;3.90;99.90;;;;;;4770328;30;19974;-86
2023/01/16 05:32:33;;;;;;;;;;;3.80;99.90;;;;;;4770792;30;20027;-86
2023/01/16 05:35:01;;;;;;;;;;;3.10;99.90;;;;;;4754788;30;19977;-86
2023/01/16 05:37:28;;;;;;;;;;;3.70;99.90;;;;;;4754215;30;19982;-86
2023/01/16 05:39:56;;;;;;;;;;;3.70;99.90;;;;;;4754560;30;19985;-86
2023/01/16 05:42:24;;;;;;;;;;;3.70;99.90;;;;;;4754317;30;20332;-86
2023/01/16 05:44:52;;;;;;;;;;;4.80;99.90;;;;;;4754577;30;19978;-86
2023/01/16 05:47:18;;;;;;;;;;;4.30;99.90;;;;;;4739628;30;19978;-86
2023/01/16 05:49:44;;;;;;;;;;;4.10;99.90;;;;;;4754776;30;20022;-86
2023/01/16 05:52:10;;;;;;;;;;;3.40;99.90;;;;;;4754187;30;20032;-86
2023/01/16 05:54:35;;;;;;;;;;;3.40;99.90;;;;;;4754205;30;19985;-86
2023/01/16 05:57:01;;;;;;;;;;;3.70;99.90;;;;;;4769999;30;19990;-85
2023/01/16 05:59:26;;;;;;;;;;;4.20;99.90;;;;;;4770138;30;20332;-86
2023/01/16 06:01:52;;;;;;;;;;;4.20;99.90;;;;;;4783492;30;20004;-85
2023/01/16 06:04:19;;;;;;;;;;;3.20;99.90;;;;;;4754188;30;20072;-85
2023/01/16 06:06:45;;;;;;;;;;;3.10;99.90;;;;;;4769615;30;19982;-85
2023/01/16 06:09:10;;;;;;;;;;;2.30;99.90;;;;;;4738927;30;19978;-85
2023/01/16 06:11:36;;;;;;;;;;;2.50;99.90;;;;;;4770106;30;20113;-85
2023/01/16 06:14:04;;;;;;;;;;;3.40;99.90;;;;;;4769805;30;19985;-85
2023/01/16 06:16:32;;;;;;;;;;;4.00;99.90;;;;;;4770000;30;20467;-86
2023/01/16 06:18:58;;;;;;;;;;;2.90;99.90;;;;;;4753724;30;19978;-85
2023/01/16 06:21:23;;;;;;;;;;;2.90;99.90;;;;;;4770132;30;20376;-86
2023/01/16 06:23:49;;;;;;;;;;;2.80;99.90;;;;;;4753525;30;19977;-85
2023/01/16 06:26:15;;;;;;;;;;;3.10;99.90;;;;;;4753965;30;19978;-85
2023/01/16 06:28:40;;;;;;;;;;;3.20;99.90;;;;;;4773231;30;19984;-85
2023/01/16 06:31:06;;;;;;;;;;;3.50;99.90;;;;;;4757950;30;20057;-84
2023/01/16 06:33:32;;;;;;;;;;;1.50;99.90;;;;;;4773268;30;20026;-84
2023/01/16 06:35:57;;;;;;;;;;;3.20;99.90;;;;;;4773569;30;20046;-85
2023/01/16 06:38:23;;;;;;;;;;;2.40;99.90;;;;;;4787404;30;20027;-86
2023/01/16 06:40:49;;;;;;;;;;;3.80;99.90;;;;;;4773314;30;20358;-85
2023/01/16 06:43:16;;;;;;;;;;;3.10;99.90;;;;;;4773648;30;19970;-86
2023/01/16 06:45:42;;;;;;;;;;;3.20;99.90;;;;;;4773057;30;19997;-85
2023/01/16 06:48:07;;;;;;;;;;;2.70;99.90;;;;;;4773396;30;19947;-85
2023/01/16 06:50:33;;;;;;;;;;;3.40;99.90;;;;;;4756381;30;20001;-86
2023/01/16 06:52:59;;;;;;;;;;;3.30;99.90;;;;;;4773493;30;20047;-86
2023/01/16 06:55:25;;;;;;;;;;;1.80;99.90;;;;;;4772902;30;19985;-86
2023/01/16 06:57:50;;;;;;;;;;;2.10;99.90;;;;;;4786622;30;19985;-85
2023/01/16 07:00:16;;;;;;;;;;;1.60;99.90;;;;;;4773265;29;19998;-86
2023/01/16 07:02:41;;;;;;;;;;;2.70;99.90;;;;;;4773095;30;19979;-86
2023/01/16 07:05:08;;;;;;;;;;;2.70;99.90;;;;;;4786918;30;19978;-86
2023/01/16 07:07:33;;;;;;;;;;;2.80;99.90;;;;;;4772524;30;20101;-86
2023/01/16 07:09:59;;;;;;;;;;;2.50;99.90;;;;;;4773422;30;20001;-86
2023/01/16 07:12:25;;;;;;;;;;;1.90;99.90;;;;;;4756722;30;20068;-86
2023/01/16 07:23:23;;;;;;;;;;;4.00;99.90;;;;;;4772600;30;19985;-87
2023/01/16 07:25:53;;;;;;;;;;;2.90;99.90;;;;;;4756305;30;19978;-91
2023/01/16 07:28:19;;;;;;;;;;;3.20;99.90;;;;;;4772904;30;20009;-89
2023/01/16 07:30:45;;;;;;;;;;;2.50;99.90;;;;;;4756607;30;20385;-86
2023/01/16 07:33:11;;;;;;;;;;;3.90;99.90;;;;;;4786323;30;20347;-85
2023/01/16 07:35:36;;;;;;;;;;;3.90;99.90;;;;;;4772471;30;19998;-84
2023/01/16 07:38:02;;;;;;;;;;;2.80;99.90;;;;;;4772635;30;19978;-84
2023/01/16 07:40:28;;;;;;;;;;;3.60;99.90;;;;;;4756757;30;19974;-86
2023/01/16 07:42:53;;;;;;;;;;;2.90;99.90;;;;;;4756309;30;20043;-84
2023/01/16 07:45:19;;;;;;;;;;;3.40;99.90;;;;;;4772177;30;19970;-85
2023/01/16 07:47:45;;;;;;;;;;;3.80;99.90;;;;;;4772149;30;19978;-85
2023/01/16 07:50:10;;;;;;;;;;;2.30;99.90;;;;;;4772228;30;19993;-86
2023/01/16 07:52:36;;;;;;;;;;;3.30;99.90;;;;;;4771831;30;19970;-85
2023/01/16 07:55:01;;;;;;;;;;;2.70;99.90;;;;;;4771581;30;19978;-86
2023/01/16 07:57:27;;;;;;;;;;;2.70;99.90;;;;;;4772099;30;20025;-86
2023/01/16 07:59:53;;;;;;;;;;;3.80;99.90;;;;;;4772015;29;20005;-85
2023/01/16 08:02:19;;;;;;;;;;;3.60;99.90;;;;;;4756226;30;20458;-85
2023/01/16 08:04:45;;;;;;;;;;;2.70;99.90;;;;;;4772206;30;20358;-85
2023/01/16 08:07:10;;;;;;;;;;;2.40;99.90;;;;;;4772004;30;19982;-85
2023/01/16 08:09:36;;;;;;;;;;;2.20;99.90;;;;;;4756007;30;20000;-84
2023/01/16 08:12:01;;;;;;;;;;;3.50;99.90;;;;;;4771818;30;19975;-84
2023/01/16 08:14:27;;;;;;;;;;;3.20;99.90;;;;;;4772060;30;20376;-85
2023/01/16 08:16:53;;;;;;;;;;;2.70;99.90;;;;;;4785752;30;20511;-86
2023/01/16 08:19:18;;;;;;;;;;;2.70;99.90;;;;;;4756030;30;19978;-85
2023/01/16 08:21:44;;;;;;;;;;;2.70;99.90;;;;;;4755858;30;19984;-84
2023/01/16 08:24:12;;;;;;;;;;;3.50;99.90;;;;;;4785448;30;20055;-84
2023/01/16 08:26:38;;;;;;;;;;;2.70;99.90;;;;;;4771640;30;20396;-83
2023/01/16 08:29:04;;;;;;;;;;;3.00;99.90;;;;;;4771771;30;19968;-84
2023/01/16 08:31:29;;;;;;;;;;;2.00;99.90;;;;;;4771716;30;20028;-82
2023/01/16 08:33:55;;;;;;;;;;;2.80;99.90;;;;;;4771418;30;20092;-82
2023/01/16 08:36:21;;;;;;;;;;;2.80;99.90;;;;;;4771556;30;20041;-81
2023/01/16 08:38:47;;;;;;;;;;;2.80;99.90;;;;;;4755536;30;20004;-82
2023/01/16 08:52:11;;;;;;;;;;;2.90;99.90;;;;;;4771953;30;19932;-83
2023/01/16 08:54:37;;;;;;;;;;;4.00;99.90;;;;;;4771511;30;19974;-84
2023/01/16 08:57:02;;;;;;;;;;;3.10;99.90;;;;;;4771540;30;19998;-85
2023/01/16 08:59:33;;;;;;;;;;;3.00;99.90;;;;;;4770356;30;19989;-82
2023/01/16 09:01:59;;;;;;;;;;;3.90;99.90;;;;;;4771089;30;20420;-83
2023/01/16 09:04:25;;;;;;;;;;;3.10;99.90;;;;;;4771126;30;19989;-83
2023/01/16 09:06:53;;;;;;;;;;;3.10;99.90;;;;;;4785961;30;20419;-82
2023/01/16 09:09:19;;;;;;;;;;;3.70;99.90;;;;;;4788879;30;19974;-83
2023/01/16 09:14:28;;;;;;;;;;;3.10;99.90;;;;;;4789040;30;19978;-83
2023/01/16 09:16:54;;;;;;;;;;;3.30;99.90;;;;;;4771379;30;20004;-83
2023/01/16 09:19:20;;;;;;;;;;;3.90;99.90;;;;;;4771009;30;20035;-84
2023/01/16 09:21:45;;;;;;;;;;;3.30;99.90;;;;;;4770769;30;19978;-81
2023/01/16 09:24:11;;;;;;;;;;;3.30;99.90;;;;;;4770724;30;19978;-82
2023/01/16 09:26:36;;;;;;;;;;;3.40;99.90;;;;;;4770900;30;20064;-82
2023/01/16 09:29:02;;;;;;;;;;;3.40;99.90;;;;;;4754801;30;20411;-81
2023/01/16 09:31:27;;;;;;;;;;;3.40;99.90;;;;;;4754644;30;19973;-81
2023/01/16 09:33:54;;;;;;;;;;;3.40;99.90;;;;;;4770719;30;20038;-82
2023/01/16 09:36:20;;;;;;;;;;;4.30;99.90;;;;;;4770226;30;19997;-81
2023/01/16 09:38:45;;;;;;;;;;;3.60;99.90;;;;;;4770276;30;20343;-82
2023/01/16 09:43:35;;;;;;;;;;;3.50;99.90;;;;;;4769817;30;19999;-82
2023/01/16 09:43:59;;;;;;;;;;;3.50;99.90;;;;;;4770562;30;19985;-82
2023/01/16 09:46:27;;;;;;;;;;;3.60;99.90;;;;;;4770336;30;20347;-85
2023/01/16 09:49:00;;;;;;;;;;;3.60;99.90;;;;;;4769861;30;20491;-81
2023/01/16 09:58:34;;;;;;;;;;;3.60;99.90;;;;;;4754338;30;20039;-83
2023/01/16 10:00:00;;;;;;;;;;;4.30;99.90;;;;;;4770168;30;20005;-82
2023/01/16 10:02:25;;;;;;;;;;;3.70;99.90;;;;;;4770422;30;19985;-82
2023/01/16 10:04:53;;;;;;;;;;;4.20;99.90;;;;;;4770116;30;19978;-81
2023/01/16 10:07:39;;;;;;;;;;;4.50;99.90;;;;;;4769825;30;20321;-86
2023/01/16 10:10:08;;;;;;;;;;;3.70;99.90;;;;;;4770157;30;19977;-82
2023/01/16 10:12:34;;;;;;;;;;;3.80;99.90;;;;;;4770415;30;19975;-82
2023/01/16 10:15:24;;;;;;;;;;;4.50;99.90;;;;;;4770461;30;20452;-82
2023/01/16 10:18:16;;;;;;;;;;;3.80;99.90;;;;;;4770120;30;20075;-81
2023/01/16 10:20:41;;;;;;;;;;;3.90;99.90;;;;;;4754036;30;19976;-81
2023/01/16 10:23:15;;;;;;;;;;;4.30;99.90;;;;;;4769424;30;20038;-84
2023/01/16 10:25:47;;;;;;;;;;;3.80;99.90;;;;;;4769836;30;19973;-82
2023/01/16 10:28:18;;;;;;;;;;;3.90;99.90;;;;;;4770070;30;19976;-81
2023/01/16 10:30:47;;;;;;;;;;;3.90;99.90;;;;;;4770022;30;20439;-83
2023/01/16 10:33:12;;;;;;;;;;;4.70;99.90;;;;;;4769788;30;19982;-82
2023/01/16 10:35:43;;;;;;;;;;;3.90;99.90;;;;;;4769997;30;19993;-82
2023/01/16 10:38:32;;;;;;;;;;;3.90;99.90;;;;;;4769818;30;19973;-82
2023/01/16 10:40:58;;;;;;;;;;;3.90;99.90;;;;;;4768643;30;19986;-84
2023/01/16 10:51:46;;;;;;;;;;;4.00;99.90;;;;;;4769713;30;20423;-81
2023/01/16 10:54:12;;;;;;;;;;;4.70;99.90;;;;;;4770032;30;19940;-81
2023/01/16 10:56:40;;;;;;;;;;;4.10;99.90;;;;;;4769745;30;19989;-81
2023/01/16 10:59:07;;;;;;;;;;;4.10;99.90;;;;;;4769602;30;20426;-81
2023/01/16 11:01:32;;;;;;;;;;;4.10;99.90;;;;;;4753428;30;20118;-81
2023/01/16 11:03:59;;;;;;;;;;;4.00;99.90;;;;;;4769904;30;20069;-81
2023/01/16 11:06:26;;;;;;;;;;;4.20;99.90;;;;;;4769572;30;20067;-81
2023/01/16 11:09:00;;;;;;;;;;;4.10;99.90;;;;;;4769832;30;19993;-82
2023/01/16 11:20:06;;;;;;;;;;;4.00;99.90;;;;;;4773097;30;19977;-82
2023/01/16 11:22:35;;;;;;;;;;;3.90;99.90;;;;;;4756274;30;20339;-82
2023/01/16 11:25:03;;;;;;;;;;;3.90;99.90;;;;;;4772565;30;19977;-82
2023/01/16 11:27:31;;;;;;;;;;;3.90;99.90;;;;;;4772647;30;19978;-84
2023/01/16 11:29:57;;;;;;;;;;;3.90;99.90;;;;;;4772711;30;20074;-82
2023/01/16 11:32:24;;;;;;;;;;;4.50;99.90;;;;;;4772732;30;19951;-82
2023/01/16 11:34:53;;;;;;;;;;;4.00;99.90;;;;;;4773045;30;19987;-84
2023/01/16 11:37:19;;;;;;;;;;;3.60;99.90;;;;;;4772238;30;20405;-82
2023/01/16 11:39:49;;;;;;;;;;;3.60;99.90;;;;;;4772357;30;20072;-82
2023/01/16 11:47:49;;;;;;;;;;;3.50;99.90;;;;;;4756820;30;19978;-85
2023/01/16 11:50:29;;;;;;;;;;;4.20;99.90;;;;;;4772431;30;19978;-84
2023/01/16 11:52:54;;;;;;;;;;;3.50;99.90;;;;;;4771584;30;20084;-86
2023/01/16 11:55:22;;;;;;;;;;;3.50;99.90;;;;;;4756726;30;20020;-84
2023/01/16 11:57:50;;;;;;;;;;;3.70;99.90;;;;;;4756620;30;20430;-85
2023/01/16 12:00:38;;;;;;;;;;;3.40;99.90;;;;;;4756215;30;20041;-85
2023/01/16 12:03:04;;;;;;;;;;;3.40;99.90;;;;;;4772444;30;19978;-84
2023/01/16 12:05:54;;;;;;;;;;;3.40;99.90;;;;;;4772180;29;19980;-83
2023/01/16 12:08:29;;;;;;;;;;;3.50;99.90;;;;;;4772429;30;20038;-85
2023/01/16 12:11:00;;;;;;;;;;;3.40;99.90;;;;;;4772097;30;19977;-84
2023/01/16 12:16:33;;;;;;;;;;;3.50;99.90;;;;;;4754483;30;19997;-84
2023/01/16 12:18:59;;;;;;;;;;;3.50;99.90;;;;;;4755898;30;19978;-83
2023/01/16 12:21:31;;;;;;;;;;;4.30;99.90;;;;;;4771864;30;19985;-85
2023/01/16 12:24:15;;;;;;;;;;;3.50;99.90;;;;;;4755550;30;19984;-84
2023/01/16 12:27:04;;;;;;;;;;;3.10;99.90;;;;;;4751154;30;20091;-84
2023/01/16 12:29:39;;;;;;;;;;;3.60;99.90;;;;;;4751929;30;19995;-85
2023/01/16 12:32:18;;;;;;;;;;;3.60;99.90;;;;;;4751723;30;20360;-82
2023/01/16 12:34:55;;;;;;;;;;;3.60;99.90;;;;;;4751519;30;19973;-85
2023/01/16 12:37:23;;;;;;;;;;;3.70;99.90;;;;;;4751769;30;20013;-83
2023/01/16 12:39:59;;;;;;;;;;;3.70;99.90;;;;;;4751719;30;19982;-82
2023/01/16 12:45:32;;;;;;;;;;;3.70;99.90;;;;;;4751428;30;19973;-82
2023/01/16 12:48:16;;;;;;;;;;;3.70;99.90;;;;;;4750895;30;19982;-86
2023/01/16 12:50:50;;;;;;;;;;;3.70;99.90;;;;;;4751480;30;19926;-82
2023/01/16 12:53:24;;;;;;;;;;;4.60;99.90;;;;;;4749123;30;20359;-85
2023/01/16 12:55:50;;;;;;;;;;;3.70;99.90;;;;;;4733715;30;20441;-82
2023/01/16 12:58:18;;;;;;;;;;;3.70;99.90;;;;;;4733944;30;20099;-83
2023/01/16 13:00:49;;;;;;;;;;;3.80;99.90;;;;;;4749305;30;20008;-84
2023/01/16 13:03:44;;;;;;;;;;;3.80;99.90;;;;;;4751483;30;20015;-83
2023/01/16 13:06:15;;;;;;;;;;;3.80;99.90;;;;;;4698625;30;20012;-83
2023/01/16 13:08:59;;;;;;;;;;;3.80;99.90;;;;;;4698963;30;20017;-84
2023/01/16 13:14:32;;;;;;;;;;;3.10;99.90;;;;;;4664403;30;20470;-83
2023/01/16 13:17:02;;;;;;;;;;;4.70;99.90;;;;;;4664027;30;20054;-83
2023/01/16 13:19:30;;;;;;;;;;;3.70;99.90;;;;;;4661879;30;20012;-86
2023/01/16 13:22:06;;;;;;;;;;;4.00;99.90;;;;;;4663162;30;19979;-84
2023/01/16 13:24:40;;;;;;;;;;;4.00;99.90;;;;;;4664309;30;19982;-86
2023/01/16 13:27:09;;;;;;;;;;;4.00;99.90;;;;;;4664119;30;19975;-84
2023/01/16 13:29:49;;;;;;;;;;;4.20;99.90;;;;;;4663949;30;20384;-83
2023/01/16 13:32:29;;;;;;;;;;;3.90;99.90;;;;;;4663756;30;19968;-86
2023/01/16 13:34:58;;;;;;;;;;;4.00;99.90;;;;;;4649975;30;20445;-84
2023/01/16 13:37:36;;;;;;;;;;;3.80;99.90;;;;;;4663481;30;19994;-83
2023/01/16 13:40:20;;;;;;;;;;;4.00;99.90;;;;;;4663630;30;19979;-84
2023/01/16 13:42:54;;;;;;;;;;;4.00;99.90;;;;;;4687281;30;20065;-82
2023/01/16 13:45:49;;;;;;;;;;;4.00;99.90;;;;;;4715499;30;20030;-85
2023/01/16 13:48:44;;;;;;;;;;;4.00;99.90;;;;;;4714405;30;20003;-84
2023/01/16 13:51:14;;;;;;;;;;;4.00;99.90;;;;;;4765999;30;20018;-82
2023/01/16 13:53:40;;;;;;;;;;;4.00;99.90;;;;;;4770131;30;19974;-85
2023/01/16 13:56:08;;;;;;;;;;;4.40;99.90;;;;;;4754371;30;19979;-85
2023/01/16 13:58:37;;;;;;;;;;;4.80;99.90;;;;;;4769428;30;20009;-83
2023/01/16 14:01:04;;;;;;;;;;;4.30;99.90;;;;;;4770043;30;19989;-83
2023/01/16 14:03:31;;;;;;;;;;;5.00;99.90;;;;;;4770368;30;19966;-84
2023/01/16 14:06:09;;;;;;;;;;;4.10;99.90;;;;;;4770347;29;19962;-83
2023/01/16 14:11:33;;;;;;;;;;;4.10;99.90;;;;;;4770179;30;20006;-84
2023/01/16 14:16:30;;;;;;;;;;;4.00;99.90;;;;;;4754522;30;19956;-83
2023/01/16 14:17:03;;;;;;;;;;;4.10;99.90;;;;;;4770586;30;20013;-83
2023/01/16 14:19:35;;;;;;;;;;;4.40;99.90;;;;;;4769507;30;20323;-86
2023/01/16 14:24:41;;;;;;;;;;;4.20;99.90;;;;;;4770034;30;19961;-84
2023/01/16 14:27:11;;;;;;;;;;;4.20;99.90;;;;;;4769738;30;20058;-84
2023/01/16 14:29:44;;;;;;;;;;;4.40;99.90;;;;;;4769820;30;19955;-84
2023/01/16 14:32:12;;;;;;;;;;;4.90;99.90;;;;;;4770089;30;20298;-85
2023/01/16 14:34:44;;;;;;;;;;;4.20;99.90;;;;;;4770240;30;19983;-84
2023/01/16 14:37:27;;;;;;;;;;;4.30;99.90;;;;;;4753669;30;19976;-86
2023/01/16 14:39:54;;;;;;;;;;;4.10;99.90;;;;;;4753667;30;20076;-83
2023/01/16 14:57:00;;;;;;;;;;;4.20;99.90;;;;;;4773332;30;19990;-83
2023/01/16 14:59:29;;;;;;;;;;;4.20;99.90;;;;;;4773062;30;19968;-85
2023/01/16 15:02:19;;;;;;;;;;;4.20;99.90;;;;;;4772754;30;19984;-84
2023/01/16 15:04:58;;;;;;;;;;;4.30;99.90;;;;;;4773353;30;20369;-83
2023/01/16 15:07:35;;;;;;;;;;;4.30;99.90;;;;;;4773234;30;20395;-87
2023/01/16 15:10:07;;;;;;;;;;;4.30;99.90;;;;;;4773062;30;19985;-83
2023/01/16 15:12:37;;;;;;;;;;;4.30;99.90;;;;;;4772742;30;19968;-83
2023/01/16 15:15:02;;;;;;;;;;;4.20;99.90;;;;;;4772982;30;20340;-84
2023/01/16 15:23:03;;;;;;;;;;;4.30;99.90;;;;;;4773020;30;20323;-84
2023/01/16 15:25:47;;;;;;;;;;;5.20;99.90;;;;;;4772983;30;19959;-83
2023/01/16 15:28:22;;;;;;;;;;;4.20;99.90;;;;;;4772906;30;19979;-83
2023/01/16 15:30:54;;;;;;;;;;;4.20;99.90;;;;;;4772357;30;20513;-84
2023/01/16 15:33:50;;;;;;;;;;;4.40;99.90;;;;;;4772357;30;19971;-86
2023/01/16 15:36:30;;;;;;;;;;;4.30;99.90;;;;;;4741739;30;20457;-85
2023/01/16 15:38:57;;;;;;;;;;;4.20;99.90;;;;;;4772297;30;19973;-83
2023/01/16 15:47:11;;;;;;;;;;;4.20;99.90;;;;;;4772263;30;19969;-85
2023/01/16 15:49:44;;;;;;;;;;;4.20;99.90;;;;;;4756276;30;19974;-86
2023/01/16 15:52:09;;;;;;;;;;;4.20;99.90;;;;;;4754164;30;19962;-89
2023/01/16 15:54:37;;;;;;;;;;;5.10;99.90;;;;;;4754487;30;20375;-86
2023/01/16 15:57:02;;;;;;;;;;;3.90;99.90;;;;;;4756336;30;20030;-87
2023/01/16 15:59:30;;;;;;;;;;;4.20;99.90;;;;;;4772098;30;20017;-86
2023/01/16 16:02:14;;;;;;;;;;;5.40;99.90;;;;;;4769920;30;20073;-86
2023/01/16 16:04:40;;;;;;;;;;;4.20;99.90;;;;;;4755531;30;19957;-86
2023/01/16 16:07:06;;;;;;;;;;;4.20;99.90;;;;;;4755847;30;19959;-84
2023/01/16 16:09:31;;;;;;;;;;;5.00;99.90;;;;;;4771743;30;19993;-84
2023/01/16 16:12:00;;;;;;;;;;;5.20;99.90;;;;;;4771479;30;20434;-85
2023/01/16 16:20:21;;;;;;;;;;;4.20;99.90;;;;;;4767171;30;20017;-86
2023/01/16 16:22:49;;;;;;;;;;;4.20;99.90;;;;;;4755142;30;19973;-87
2023/01/16 16:25:24;;;;;;;;;;;4.70;99.90;;;;;;4755546;30;20046;-92
2023/01/16 16:27:50;;;;;;;;;;;4.20;99.90;;;;;;4772372;30;20019;-86
2023/01/16 16:30:21;;;;;;;;;;;5.20;99.90;;;;;;4773593;30;19948;-91
2023/01/16 16:32:53;;;;;;;;;;;4.20;99.90;;;;;;4776156;30;19973;-91
2023/01/16 16:35:22;;;;;;;;;;;4.20;99.90;;;;;;4760814;30;20016;-88
2023/01/16 16:37:48;;;;;;;;;;;4.20;99.90;;;;;;4776530;30;20054;-87